sensor_id;sensor_type;location;lat;lon;timestamp;P1;durP1;ratioP1;P2;durP2;ratioP2
35150;SDS011;55720;51.972;4.624;2022-08-21T00:00:46;5.80;;;2.97;;
35150;SDS011;55720;51.972;4.624;2022-08-21T00:03:13;7.47;;;3.10;;
35150;SDS011;55720;51.972;4.624;2022-08-21T00:05:40;8.43;;;3.08;;
35150;SDS011;55720;51.972;4.624;2022-08-21T00:08:08;3.97;;;2.33;;
35150;SDS011;55720;51.972;4.624;2022-08-21T00:10:34;5.90;;;3.35;;
35150;SDS011;55720;51.972;4.624;2022-08-21T00:13:01;7.22;;;3.50;;
35150;SDS011;55720;51.972;4.624;2022-08-21T00:15:29;8.27;;;3.53;;
35150;SDS011;55720;51.972;4.624;2022-08-21T00:17:56;8.52;;;3.38;;
35150;SDS011;55720;51.972;4.624;2022-08-21T00:20:22;8.90;;;3.50;;
35150;SDS011;55720;51.972;4.624;2022-08-21T00:22:49;10.63;;;3.55;;
35150;SDS011;55720;51.972;4.624;2022-08-21T00:25:15;8.75;;;3.40;;
35150;SDS011;55720;51.972;4.624;2022-08-21T00:27:41;5.28;;;3.17;;
35150;SDS011;55720;51.972;4.624;2022-08-21T00:30:09;10.63;;;4.03;;
35150;SDS011;55720;51.972;4.624;2022-08-21T00:32:37;9.88;;;3.60;;
35150;SDS011;55720;51.972;4.624;2022-08-21T00:35:05;9.45;;;3.85;;
35150;SDS011;55720;51.972;4.624;2022-08-21T00:37:33;8.60;;;3.63;;
35150;SDS011;55720;51.972;4.624;2022-08-21T00:39:59;5.72;;;3.50;;
35150;SDS011;55720;51.972;4.624;2022-08-21T00:42:24;7.60;;;3.78;;
35150;SDS011;55720;51.972;4.624;2022-08-21T00:44:50;7.65;;;3.70;;
35150;SDS011;55720;51.972;4.624;2022-08-21T00:47:16;10.95;;;3.65;;
35150;SDS011;55720;51.972;4.624;2022-08-21T00:49:43;9.48;;;3.28;;
35150;SDS011;55720;51.972;4.624;2022-08-21T00:52:11;8.85;;;3.33;;
35150;SDS011;55720;51.972;4.624;2022-08-21T00:54:42;7.65;;;3.60;;
35150;SDS011;55720;51.972;4.624;2022-08-21T00:57:10;9.70;;;3.30;;
35150;SDS011;55720;51.972;4.624;2022-08-21T00:59:41;8.77;;;3.70;;
35150;SDS011;55720;51.972;4.624;2022-08-21T01:02:10;11.15;;;3.70;;
35150;SDS011;55720;51.972;4.624;2022-08-21T01:04:36;13.52;;;3.35;;
35150;SDS011;55720;51.972;4.624;2022-08-21T01:07:02;13.13;;;3.72;;
35150;SDS011;55720;51.972;4.624;2022-08-21T01:09:28;7.57;;;3.30;;
35150;SDS011;55720;51.972;4.624;2022-08-21T01:11:53;7.78;;;3.58;;
35150;SDS011;55720;51.972;4.624;2022-08-21T01:14:19;10.50;;;3.55;;
35150;SDS011;55720;51.972;4.624;2022-08-21T01:16:46;6.93;;;3.58;;
35150;SDS011;55720;51.972;4.624;2022-08-21T01:19:14;11.70;;;3.80;;
35150;SDS011;55720;51.972;4.624;2022-08-21T01:21:42;9.75;;;3.08;;
35150;SDS011;55720;51.972;4.624;2022-08-21T01:24:08;13.50;;;3.63;;
35150;SDS011;55720;51.972;4.624;2022-08-21T01:26:35;17.75;;;3.10;;
35150;SDS011;55720;51.972;4.624;2022-08-21T01:29:03;10.60;;;3.33;;
35150;SDS011;55720;51.972;4.624;2022-08-21T01:31:34;14.50;;;3.60;;
35150;SDS011;55720;51.972;4.624;2022-08-21T01:34:00;16.35;;;3.85;;
35150;SDS011;55720;51.972;4.624;2022-08-21T01:36:26;11.45;;;3.38;;
35150;SDS011;55720;51.972;4.624;2022-08-21T01:38:52;8.32;;;3.63;;
35150;SDS011;55720;51.972;4.624;2022-08-21T01:41:17;10.45;;;3.50;;
35150;SDS011;55720;51.972;4.624;2022-08-21T01:43:43;11.27;;;3.40;;
35150;SDS011;55720;51.972;4.624;2022-08-21T01:46:10;6.05;;;3.42;;
35150;SDS011;55720;51.972;4.624;2022-08-21T01:48:36;8.00;;;3.00;;
35150;SDS011;55720;51.972;4.624;2022-08-21T01:51:02;11.57;;;3.22;;
35150;SDS011;55720;51.972;4.624;2022-08-21T01:53:28;10.30;;;2.95;;
35150;SDS011;55720;51.972;4.624;2022-08-21T01:55:53;12.02;;;3.25;;
35150;SDS011;55720;51.972;4.624;2022-08-21T01:58:19;11.32;;;3.30;;
35150;SDS011;55720;51.972;4.624;2022-08-21T02:00:44;12.30;;;3.47;;
35150;SDS011;55720;51.972;4.624;2022-08-21T02:03:10;12.27;;;3.10;;
35150;SDS011;55720;51.972;4.624;2022-08-21T02:05:35;12.50;;;3.38;;
35150;SDS011;55720;51.972;4.624;2022-08-21T02:08:01;10.60;;;3.40;;
35150;SDS011;55720;51.972;4.624;2022-08-21T02:10:27;12.25;;;3.67;;
35150;SDS011;55720;51.972;4.624;2022-08-21T02:12:56;19.40;;;3.35;;
35150;SDS011;55720;51.972;4.624;2022-08-21T02:15:24;15.82;;;3.70;;
35150;SDS011;55720;51.972;4.624;2022-08-21T02:17:54;18.88;;;4.28;;
35150;SDS011;55720;51.972;4.624;2022-08-21T02:22:49;8.65;;;3.05;;
35150;SDS011;55720;51.972;4.624;2022-08-21T02:25:16;13.10;;;3.33;;
35150;SDS011;55720;51.972;4.624;2022-08-21T02:27:44;18.63;;;4.05;;
35150;SDS011;55720;51.972;4.624;2022-08-21T02:30:13;7.88;;;3.42;;
35150;SDS011;55720;51.972;4.624;2022-08-21T02:32:42;7.32;;;3.33;;
35150;SDS011;55720;51.972;4.624;2022-08-21T02:35:08;11.45;;;3.72;;
35150;SDS011;55720;51.972;4.624;2022-08-21T02:37:42;14.63;;;3.72;;
35150;SDS011;55720;51.972;4.624;2022-08-21T02:40:10;10.77;;;3.45;;
35150;SDS011;55720;51.972;4.624;2022-08-21T02:42:36;11.35;;;4.03;;
35150;SDS011;55720;51.972;4.624;2022-08-21T02:45:04;7.43;;;3.50;;
35150;SDS011;55720;51.972;4.624;2022-08-21T02:47:29;8.30;;;3.97;;
35150;SDS011;55720;51.972;4.624;2022-08-21T02:49:55;14.90;;;3.70;;
35150;SDS011;55720;51.972;4.624;2022-08-21T02:52:20;17.98;;;3.83;;
35150;SDS011;55720;51.972;4.624;2022-08-21T02:54:46;15.07;;;3.70;;
35150;SDS011;55720;51.972;4.624;2022-08-21T02:57:12;10.80;;;3.38;;
35150;SDS011;55720;51.972;4.624;2022-08-21T02:59:37;10.75;;;3.90;;
35150;SDS011;55720;51.972;4.624;2022-08-21T03:02:03;10.45;;;3.60;;
35150;SDS011;55720;51.972;4.624;2022-08-21T03:04:28;11.55;;;3.97;;
35150;SDS011;55720;51.972;4.624;2022-08-21T03:06:55;8.82;;;3.38;;
35150;SDS011;55720;51.972;4.624;2022-08-21T03:09:20;7.32;;;3.58;;
35150;SDS011;55720;51.972;4.624;2022-08-21T03:11:45;6.60;;;3.22;;
35150;SDS011;55720;51.972;4.624;2022-08-21T03:14:11;13.35;;;3.58;;
35150;SDS011;55720;51.972;4.624;2022-08-21T03:16:36;9.32;;;3.53;;
35150;SDS011;55720;51.972;4.624;2022-08-21T03:19:02;14.32;;;4.03;;
35150;SDS011;55720;51.972;4.624;2022-08-21T03:21:28;8.95;;;3.03;;
35150;SDS011;55720;51.972;4.624;2022-08-21T03:23:53;9.98;;;3.67;;
35150;SDS011;55720;51.972;4.624;2022-08-21T03:26:19;7.47;;;3.35;;
35150;SDS011;55720;51.972;4.624;2022-08-21T03:28:44;21.20;;;3.88;;
35150;SDS011;55720;51.972;4.624;2022-08-21T03:31:10;12.57;;;3.60;;
35150;SDS011;55720;51.972;4.624;2022-08-21T03:33:35;12.63;;;3.33;;
35150;SDS011;55720;51.972;4.624;2022-08-21T03:36:02;13.38;;;3.85;;
35150;SDS011;55720;51.972;4.624;2022-08-21T03:38:30;10.10;;;3.58;;
35150;SDS011;55720;51.972;4.624;2022-08-21T03:40:57;11.23;;;3.35;;
35150;SDS011;55720;51.972;4.624;2022-08-21T03:43:24;13.40;;;3.65;;
35150;SDS011;55720;51.972;4.624;2022-08-21T03:45:49;14.77;;;3.50;;
35150;SDS011;55720;51.972;4.624;2022-08-21T03:48:15;12.07;;;3.70;;
35150;SDS011;55720;51.972;4.624;2022-08-21T03:50:41;10.05;;;3.58;;
35150;SDS011;55720;51.972;4.624;2022-08-21T03:53:08;19.33;;;3.83;;
35150;SDS011;55720;51.972;4.624;2022-08-21T03:55:35;12.52;;;3.67;;
35150;SDS011;55720;51.972;4.624;2022-08-21T03:58:00;16.55;;;3.28;;
35150;SDS011;55720;51.972;4.624;2022-08-21T04:00:26;17.27;;;4.05;;
35150;SDS011;55720;51.972;4.624;2022-08-21T04:02:51;13.02;;;3.80;;
35150;SDS011;55720;51.972;4.624;2022-08-21T04:05:17;11.82;;;3.80;;
35150;SDS011;55720;51.972;4.624;2022-08-21T04:07:52;15.68;;;3.58;;
35150;SDS011;55720;51.972;4.624;2022-08-21T04:10:19;14.45;;;3.83;;
35150;SDS011;55720;51.972;4.624;2022-08-21T04:12:44;10.85;;;3.47;;
35150;SDS011;55720;51.972;4.624;2022-08-21T04:15:10;10.60;;;3.03;;
35150;SDS011;55720;51.972;4.624;2022-08-21T04:17:35;16.45;;;3.65;;
35150;SDS011;55720;51.972;4.624;2022-08-21T04:20:01;12.23;;;3.40;;
35150;SDS011;55720;51.972;4.624;2022-08-21T04:22:26;12.75;;;3.72;;
35150;SDS011;55720;51.972;4.624;2022-08-21T04:24:52;14.52;;;3.78;;
35150;SDS011;55720;51.972;4.624;2022-08-21T04:27:17;8.27;;;3.30;;
35150;SDS011;55720;51.972;4.624;2022-08-21T04:29:42;14.02;;;3.30;;
35150;SDS011;55720;51.972;4.624;2022-08-21T04:32:08;8.18;;;3.63;;
35150;SDS011;55720;51.972;4.624;2022-08-21T04:34:33;11.25;;;3.25;;
35150;SDS011;55720;51.972;4.624;2022-08-21T04:36:58;18.60;;;4.30;;
35150;SDS011;55720;51.972;4.624;2022-08-21T04:39:24;12.40;;;3.65;;
35150;SDS011;55720;51.972;4.624;2022-08-21T04:41:49;12.15;;;3.67;;
35150;SDS011;55720;51.972;4.624;2022-08-21T04:44:14;9.93;;;4.30;;
35150;SDS011;55720;51.972;4.624;2022-08-21T04:46:40;18.85;;;4.40;;
35150;SDS011;55720;51.972;4.624;2022-08-21T04:49:05;14.18;;;4.43;;
35150;SDS011;55720;51.972;4.624;2022-08-21T04:51:32;11.18;;;4.90;;
35150;SDS011;55720;51.972;4.624;2022-08-21T04:56:39;18.10;;;4.53;;
35150;SDS011;55720;51.972;4.624;2022-08-21T05:04:04;18.27;;;4.57;;
35150;SDS011;55720;51.972;4.624;2022-08-21T05:06:34;22.33;;;4.88;;
35150;SDS011;55720;51.972;4.624;2022-08-21T05:09:02;11.43;;;5.30;;
35150;SDS011;55720;51.972;4.624;2022-08-21T05:11:32;15.68;;;4.80;;
35150;SDS011;55720;51.972;4.624;2022-08-21T05:13:58;19.65;;;5.60;;
35150;SDS011;55720;51.972;4.624;2022-08-21T05:16:23;14.25;;;4.85;;
35150;SDS011;55720;51.972;4.624;2022-08-21T05:18:49;23.23;;;5.10;;
35150;SDS011;55720;51.972;4.624;2022-08-21T05:21:15;16.58;;;5.60;;
35150;SDS011;55720;51.972;4.624;2022-08-21T05:23:40;13.75;;;5.45;;
35150;SDS011;55720;51.972;4.624;2022-08-21T05:26:05;17.55;;;5.35;;
35150;SDS011;55720;51.972;4.624;2022-08-21T05:28:31;11.27;;;5.28;;
35150;SDS011;55720;51.972;4.624;2022-08-21T05:30:57;13.20;;;5.03;;
35150;SDS011;55720;51.972;4.624;2022-08-21T05:33:23;9.77;;;5.03;;
35150;SDS011;55720;51.972;4.624;2022-08-21T05:35:52;11.25;;;5.43;;
35150;SDS011;55720;51.972;4.624;2022-08-21T05:38:21;18.35;;;5.00;;
35150;SDS011;55720;51.972;4.624;2022-08-21T05:40:46;18.63;;;5.95;;
35150;SDS011;55720;51.972;4.624;2022-08-21T05:43:12;21.48;;;4.90;;
35150;SDS011;55720;51.972;4.624;2022-08-21T05:45:38;17.95;;;5.20;;
35150;SDS011;55720;51.972;4.624;2022-08-21T05:48:17;14.48;;;5.45;;
35150;SDS011;55720;51.972;4.624;2022-08-21T05:50:44;19.35;;;5.80;;
35150;SDS011;55720;51.972;4.624;2022-08-21T05:53:12;22.75;;;4.72;;
35150;SDS011;55720;51.972;4.624;2022-08-21T05:55:38;18.33;;;5.00;;
35150;SDS011;55720;51.972;4.624;2022-08-21T05:58:05;13.95;;;4.55;;
35150;SDS011;55720;51.972;4.624;2022-08-21T06:00:31;18.65;;;4.72;;
35150;SDS011;55720;51.972;4.624;2022-08-21T06:02:57;11.90;;;4.18;;
35150;SDS011;55720;51.972;4.624;2022-08-21T06:05:22;13.25;;;4.07;;
35150;SDS011;55720;51.972;4.624;2022-08-21T06:07:48;12.75;;;4.28;;
35150;SDS011;55720;51.972;4.624;2022-08-21T06:10:13;16.92;;;4.47;;
35150;SDS011;55720;51.972;4.624;2022-08-21T06:12:39;15.57;;;4.60;;
35150;SDS011;55720;51.972;4.624;2022-08-21T06:15:04;17.13;;;4.38;;
35150;SDS011;55720;51.972;4.624;2022-08-21T06:17:30;9.23;;;4.07;;
35150;SDS011;55720;51.972;4.624;2022-08-21T06:19:55;19.88;;;4.03;;
35150;SDS011;55720;51.972;4.624;2022-08-21T06:22:21;13.82;;;4.25;;
35150;SDS011;55720;51.972;4.624;2022-08-21T06:24:47;15.13;;;3.95;;
35150;SDS011;55720;51.972;4.624;2022-08-21T06:27:13;15.15;;;3.67;;
35150;SDS011;55720;51.972;4.624;2022-08-21T06:29:38;18.63;;;4.70;;
35150;SDS011;55720;51.972;4.624;2022-08-21T06:32:04;16.90;;;3.83;;
35150;SDS011;55720;51.972;4.624;2022-08-21T06:34:37;16.33;;;3.97;;
35150;SDS011;55720;51.972;4.624;2022-08-21T06:37:04;16.75;;;3.67;;
35150;SDS011;55720;51.972;4.624;2022-08-21T06:39:29;20.52;;;4.18;;
35150;SDS011;55720;51.972;4.624;2022-08-21T06:41:55;14.32;;;3.55;;
35150;SDS011;55720;51.972;4.624;2022-08-21T06:44:20;18.38;;;4.75;;
35150;SDS011;55720;51.972;4.624;2022-08-21T06:46:46;12.65;;;3.85;;
35150;SDS011;55720;51.972;4.624;2022-08-21T06:49:11;11.88;;;3.45;;
35150;SDS011;55720;51.972;4.624;2022-08-21T06:51:37;14.18;;;3.92;;
35150;SDS011;55720;51.972;4.624;2022-08-21T06:54:03;15.27;;;3.08;;
35150;SDS011;55720;51.972;4.624;2022-08-21T06:56:28;11.57;;;3.40;;
35150;SDS011;55720;51.972;4.624;2022-08-21T06:58:54;12.63;;;3.60;;
35150;SDS011;55720;51.972;4.624;2022-08-21T07:01:20;13.45;;;3.15;;
35150;SDS011;55720;51.972;4.624;2022-08-21T07:03:49;7.95;;;3.20;;
35150;SDS011;55720;51.972;4.624;2022-08-21T07:06:14;13.82;;;3.35;;
35150;SDS011;55720;51.972;4.624;2022-08-21T07:08:40;9.35;;;2.55;;
35150;SDS011;55720;51.972;4.624;2022-08-21T07:11:13;8.00;;;2.47;;
35150;SDS011;55720;51.972;4.624;2022-08-21T07:13:42;12.57;;;2.78;;
35150;SDS011;55720;51.972;4.624;2022-08-21T07:16:08;8.20;;;2.20;;
35150;SDS011;55720;51.972;4.624;2022-08-21T07:18:33;6.53;;;1.75;;
35150;SDS011;55720;51.972;4.624;2022-08-21T07:21:00;8.27;;;2.00;;
35150;SDS011;55720;51.972;4.624;2022-08-21T07:23:49;8.38;;;1.92;;
35150;SDS011;55720;51.972;4.624;2022-08-21T07:26:14;11.80;;;2.22;;
35150;SDS011;55720;51.972;4.624;2022-08-21T07:28:41;6.60;;;2.20;;
35150;SDS011;55720;51.972;4.624;2022-08-21T07:31:08;8.02;;;2.88;;
35150;SDS011;55720;51.972;4.624;2022-08-21T07:33:35;8.70;;;2.03;;
35150;SDS011;55720;51.972;4.624;2022-08-21T07:36:01;8.80;;;2.55;;
35150;SDS011;55720;51.972;4.624;2022-08-21T07:38:27;8.88;;;2.15;;
35150;SDS011;55720;51.972;4.624;2022-08-21T07:40:52;10.38;;;2.78;;
35150;SDS011;55720;51.972;4.624;2022-08-21T07:43:20;10.77;;;2.45;;
35150;SDS011;55720;51.972;4.624;2022-08-21T07:45:46;10.38;;;2.88;;
35150;SDS011;55720;51.972;4.624;2022-08-21T07:48:12;10.30;;;2.50;;
35150;SDS011;55720;51.972;4.624;2022-08-21T07:50:38;12.55;;;2.80;;
35150;SDS011;55720;51.972;4.624;2022-08-21T07:53:04;9.05;;;2.42;;
35150;SDS011;55720;51.972;4.624;2022-08-21T07:55:30;12.77;;;2.95;;
35150;SDS011;55720;51.972;4.624;2022-08-21T07:57:55;8.98;;;2.45;;
35150;SDS011;55720;51.972;4.624;2022-08-21T08:00:22;14.60;;;2.60;;
35150;SDS011;55720;51.972;4.624;2022-08-21T08:02:50;9.75;;;2.45;;
35150;SDS011;55720;51.972;4.624;2022-08-21T08:05:17;10.55;;;2.88;;
35150;SDS011;55720;51.972;4.624;2022-08-21T08:07:45;8.63;;;2.05;;
35150;SDS011;55720;51.972;4.624;2022-08-21T08:10:10;10.15;;;2.58;;
35150;SDS011;55720;51.972;4.624;2022-08-21T08:12:36;9.57;;;2.55;;
35150;SDS011;55720;51.972;4.624;2022-08-21T08:15:04;16.27;;;2.95;;
35150;SDS011;55720;51.972;4.624;2022-08-21T08:17:31;8.75;;;2.25;;
35150;SDS011;55720;51.972;4.624;2022-08-21T08:19:57;7.43;;;1.80;;
35150;SDS011;55720;51.972;4.624;2022-08-21T08:22:25;6.70;;;2.25;;
35150;SDS011;55720;51.972;4.624;2022-08-21T08:24:51;5.22;;;1.95;;
35150;SDS011;55720;51.972;4.624;2022-08-21T08:27:18;11.63;;;2.50;;
35150;SDS011;55720;51.972;4.624;2022-08-21T08:29:44;9.70;;;1.80;;
35150;SDS011;55720;51.972;4.624;2022-08-21T08:32:10;7.32;;;1.77;;
35150;SDS011;55720;51.972;4.624;2022-08-21T08:34:36;5.90;;;2.00;;
35150;SDS011;55720;51.972;4.624;2022-08-21T08:37:02;7.55;;;2.17;;
35150;SDS011;55720;51.972;4.624;2022-08-21T08:39:29;5.72;;;1.70;;
35150;SDS011;55720;51.972;4.624;2022-08-21T08:41:58;10.65;;;2.10;;
35150;SDS011;55720;51.972;4.624;2022-08-21T08:44:29;7.13;;;1.98;;
35150;SDS011;55720;51.972;4.624;2022-08-21T08:46:55;6.95;;;1.73;;
35150;SDS011;55720;51.972;4.624;2022-08-21T08:49:23;6.93;;;1.80;;
35150;SDS011;55720;51.972;4.624;2022-08-21T08:55:03;9.00;;;1.57;;
35150;SDS011;55720;51.972;4.624;2022-08-21T08:57:14;6.97;;;1.15;;
35150;SDS011;55720;51.972;4.624;2022-08-21T08:59:44;6.40;;;1.52;;
35150;SDS011;55720;51.972;4.624;2022-08-21T09:02:13;6.47;;;1.58;;
35150;SDS011;55720;51.972;4.624;2022-08-21T09:04:41;5.45;;;1.60;;
35150;SDS011;55720;51.972;4.624;2022-08-21T09:07:12;4.65;;;1.40;;
35150;SDS011;55720;51.972;4.624;2022-08-21T09:09:51;6.25;;;1.60;;
35150;SDS011;55720;51.972;4.624;2022-08-21T09:12:31;9.95;;;1.55;;
35150;SDS011;55720;51.972;4.624;2022-08-21T09:18:23;5.68;;;1.60;;
35150;SDS011;55720;51.972;4.624;2022-08-21T09:23:42;9.68;;;1.80;;
35150;SDS011;55720;51.972;4.624;2022-08-21T09:26:15;7.80;;;1.63;;
35150;SDS011;55720;51.972;4.624;2022-08-21T09:28:44;5.25;;;1.50;;
35150;SDS011;55720;51.972;4.624;2022-08-21T09:31:26;9.68;;;1.90;;
35150;SDS011;55720;51.972;4.624;2022-08-21T09:33:58;9.13;;;1.70;;
35150;SDS011;55720;51.972;4.624;2022-08-21T09:36:44;7.35;;;1.75;;
35150;SDS011;55720;51.972;4.624;2022-08-21T09:39:22;6.32;;;1.50;;
35150;SDS011;55720;51.972;4.624;2022-08-21T09:42:03;12.32;;;1.73;;
35150;SDS011;55720;51.972;4.624;2022-08-21T09:44:32;6.68;;;1.42;;
35150;SDS011;55720;51.972;4.624;2022-08-21T09:46:59;4.05;;;1.15;;
35150;SDS011;55720;51.972;4.624;2022-08-21T09:49:32;8.07;;;1.48;;
35150;SDS011;55720;51.972;4.624;2022-08-21T09:52:00;6.78;;;1.40;;
35150;SDS011;55720;51.972;4.624;2022-08-21T09:54:38;4.85;;;1.20;;
35150;SDS011;55720;51.972;4.624;2022-08-21T09:59:52;6.07;;;1.48;;
35150;SDS011;55720;51.972;4.624;2022-08-21T10:02:21;3.47;;;1.08;;
35150;SDS011;55720;51.972;4.624;2022-08-21T10:04:57;11.18;;;1.45;;
35150;SDS011;55720;51.972;4.624;2022-08-21T10:07:26;5.80;;;1.58;;
35150;SDS011;55720;51.972;4.624;2022-08-21T10:10:02;5.75;;;1.23;;
35150;SDS011;55720;51.972;4.624;2022-08-21T10:15:13;5.18;;;1.20;;
35150;SDS011;55720;51.972;4.624;2022-08-21T10:18:04;6.03;;;1.00;;
35150;SDS011;55720;51.972;4.624;2022-08-21T10:20:39;8.02;;;1.20;;
35150;SDS011;55720;51.972;4.624;2022-08-21T10:23:27;3.75;;;1.25;;
35150;SDS011;55720;51.972;4.624;2022-08-21T10:34:14;7.13;;;1.33;;
35150;SDS011;55720;51.972;4.624;2022-08-21T10:44:46;5.55;;;1.50;;
35150;SDS011;55720;51.972;4.624;2022-08-21T10:47:29;5.75;;;1.00;;
35150;SDS011;55720;51.972;4.624;2022-08-21T10:55:59;7.30;;;1.73;;
35150;SDS011;55720;51.972;4.624;2022-08-21T10:58:42;4.53;;;0.93;;
35150;SDS011;55720;51.972;4.624;2022-08-21T11:01:24;5.10;;;1.08;;
35150;SDS011;55720;51.972;4.624;2022-08-21T11:07:01;3.42;;;0.95;;
35150;SDS011;55720;51.972;4.624;2022-08-21T11:09:31;4.13;;;0.95;;
35150;SDS011;55720;51.972;4.624;2022-08-21T11:12:05;4.93;;;1.10;;
35150;SDS011;55720;51.972;4.624;2022-08-21T11:14:55;7.25;;;1.20;;
35150;SDS011;55720;51.972;4.624;2022-08-21T11:17:30;5.15;;;1.30;;
35150;SDS011;55720;51.972;4.624;2022-08-21T11:22:38;6.57;;;1.40;;
35150;SDS011;55720;51.972;4.624;2022-08-21T11:25:12;4.53;;;1.20;;
35150;SDS011;55720;51.972;4.624;2022-08-21T11:27:46;2.47;;;1.02;;
35150;SDS011;55720;51.972;4.624;2022-08-21T11:30:17;5.47;;;1.23;;
35150;SDS011;55720;51.972;4.624;2022-08-21T11:33:04;7.40;;;1.38;;
35150;SDS011;55720;51.972;4.624;2022-08-21T11:35:52;4.60;;;1.10;;
35150;SDS011;55720;51.972;4.624;2022-08-21T11:38:38;6.82;;;1.20;;
35150;SDS011;55720;51.972;4.624;2022-08-21T11:43:43;9.25;;;1.30;;
35150;SDS011;55720;51.972;4.624;2022-08-21T11:49:26;3.15;;;1.27;;
35150;SDS011;55720;51.972;4.624;2022-08-21T11:55:15;8.07;;;1.27;;
35150;SDS011;55720;51.972;4.624;2022-08-21T12:00:23;6.50;;;0.90;;
35150;SDS011;55720;51.972;4.624;2022-08-21T12:03:13;6.30;;;1.20;;
35150;SDS011;55720;51.972;4.624;2022-08-21T12:05:43;4.43;;;1.08;;
35150;SDS011;55720;51.972;4.624;2022-08-21T12:08:34;4.28;;;0.95;;
35150;SDS011;55720;51.972;4.624;2022-08-21T12:13:33;10.63;;;1.67;;
35150;SDS011;55720;51.972;4.624;2022-08-21T12:16:12;5.05;;;1.17;;
35150;SDS011;55720;51.972;4.624;2022-08-21T12:18:40;5.45;;;1.83;;
35150;SDS011;55720;51.972;4.624;2022-08-21T12:24:05;7.30;;;1.10;;
35150;SDS011;55720;51.972;4.624;2022-08-21T12:26:53;4.70;;;1.00;;
35150;SDS011;55720;51.972;4.624;2022-08-21T12:34:38;4.20;;;0.90;;
35150;SDS011;55720;51.972;4.624;2022-08-21T12:39:58;3.33;;;0.80;;
35150;SDS011;55720;51.972;4.624;2022-08-21T12:45:52;4.32;;;0.85;;
35150;SDS011;55720;51.972;4.624;2022-08-21T12:51:07;5.75;;;0.80;;
35150;SDS011;55720;51.972;4.624;2022-08-21T12:56:11;6.85;;;1.00;;
35150;SDS011;55720;51.972;4.624;2022-08-21T12:58:46;4.13;;;1.00;;
35150;SDS011;55720;51.972;4.624;2022-08-21T13:01:27;4.75;;;0.77;;
35150;SDS011;55720;51.972;4.624;2022-08-21T13:04:07;3.25;;;0.80;;
35150;SDS011;55720;51.972;4.624;2022-08-21T13:06:43;4.85;;;0.85;;
35150;SDS011;55720;51.972;4.624;2022-08-21T13:09:11;8.18;;;1.38;;
35150;SDS011;55720;51.972;4.624;2022-08-21T13:11:40;4.90;;;1.20;;
35150;SDS011;55720;51.972;4.624;2022-08-21T13:14:55;3.00;;;0.93;;
35150;SDS011;55720;51.972;4.624;2022-08-21T13:16:59;2.70;;;0.80;;
35150;SDS011;55720;51.972;4.624;2022-08-21T13:19:25;4.93;;;0.80;;
35150;SDS011;55720;51.972;4.624;2022-08-21T13:21:52;3.67;;;0.95;;
35150;SDS011;55720;51.972;4.624;2022-08-21T13:26:44;4.38;;;0.90;;
35150;SDS011;55720;51.972;4.624;2022-08-21T13:29:11;5.32;;;1.17;;
35150;SDS011;55720;51.972;4.624;2022-08-21T13:31:38;6.03;;;1.00;;
35150;SDS011;55720;51.972;4.624;2022-08-21T13:34:07;3.87;;;1.03;;
35150;SDS011;55720;51.972;4.624;2022-08-21T13:36:37;6.38;;;0.90;;
35150;SDS011;55720;51.972;4.624;2022-08-21T13:39:07;4.50;;;0.95;;
35150;SDS011;55720;51.972;4.624;2022-08-21T13:41:35;6.72;;;1.30;;
35150;SDS011;55720;51.972;4.624;2022-08-21T13:44:31;3.70;;;0.85;;
35150;SDS011;55720;51.972;4.624;2022-08-21T13:47:04;5.00;;;1.33;;
35150;SDS011;55720;51.972;4.624;2022-08-21T13:49:32;3.67;;;0.80;;
35150;SDS011;55720;51.972;4.624;2022-08-21T13:52:02;2.47;;;0.98;;
35150;SDS011;55720;51.972;4.624;2022-08-21T13:54:38;4.07;;;1.25;;
35150;SDS011;55720;51.972;4.624;2022-08-21T13:57:19;4.50;;;0.93;;
35150;SDS011;55720;51.972;4.624;2022-08-21T13:59:51;2.95;;;1.05;;
35150;SDS011;55720;51.972;4.624;2022-08-21T14:02:20;7.63;;;1.17;;
35150;SDS011;55720;51.972;4.624;2022-08-21T14:04:55;4.85;;;1.52;;
35150;SDS011;55720;51.972;4.624;2022-08-21T14:10:07;4.90;;;1.10;;
35150;SDS011;55720;51.972;4.624;2022-08-21T14:12:42;5.32;;;1.27;;
35150;SDS011;55720;51.972;4.624;2022-08-21T14:15:14;3.10;;;1.40;;
35150;SDS011;55720;51.972;4.624;2022-08-21T14:17:42;3.63;;;1.20;;
35150;SDS011;55720;51.972;4.624;2022-08-21T14:20:09;4.38;;;1.20;;
35150;SDS011;55720;51.972;4.624;2022-08-21T14:22:41;6.50;;;1.27;;
35150;SDS011;55720;51.972;4.624;2022-08-21T14:28:04;5.68;;;1.10;;
35150;SDS011;55720;51.972;4.624;2022-08-21T14:30:45;5.43;;;1.20;;
35150;SDS011;55720;51.972;4.624;2022-08-21T14:33:12;5.93;;;1.20;;
35150;SDS011;55720;51.972;4.624;2022-08-21T14:35:43;4.70;;;0.98;;
35150;SDS011;55720;51.972;4.624;2022-08-21T14:38:17;4.47;;;1.33;;
35150;SDS011;55720;51.972;4.624;2022-08-21T14:40:46;6.95;;;1.25;;
35150;SDS011;55720;51.972;4.624;2022-08-21T14:43:15;5.32;;;1.33;;
35150;SDS011;55720;51.972;4.624;2022-08-21T14:45:41;2.75;;;1.05;;
35150;SDS011;55720;51.972;4.624;2022-08-21T14:48:08;2.90;;;0.80;;
35150;SDS011;55720;51.972;4.624;2022-08-21T14:50:34;5.50;;;1.20;;
35150;SDS011;55720;51.972;4.624;2022-08-21T14:53:00;3.13;;;1.23;;
35150;SDS011;55720;51.972;4.624;2022-08-21T14:55:26;4.40;;;1.10;;
35150;SDS011;55720;51.972;4.624;2022-08-21T14:57:52;5.35;;;1.08;;
35150;SDS011;55720;51.972;4.624;2022-08-21T15:00:20;4.35;;;1.30;;
35150;SDS011;55720;51.972;4.624;2022-08-21T15:02:50;2.28;;;1.00;;
35150;SDS011;55720;51.972;4.624;2022-08-21T15:05:16;6.22;;;1.65;;
35150;SDS011;55720;51.972;4.624;2022-08-21T15:07:42;8.25;;;1.27;;
35150;SDS011;55720;51.972;4.624;2022-08-21T15:10:09;7.90;;;1.33;;
35150;SDS011;55720;51.972;4.624;2022-08-21T15:12:36;6.40;;;1.10;;
35150;SDS011;55720;51.972;4.624;2022-08-21T15:15:02;8.70;;;1.17;;
35150;SDS011;55720;51.972;4.624;2022-08-21T15:17:30;5.97;;;1.05;;
35150;SDS011;55720;51.972;4.624;2022-08-21T15:19:55;4.18;;;1.42;;
35150;SDS011;55720;51.972;4.624;2022-08-21T15:22:21;9.85;;;1.60;;
35150;SDS011;55720;51.972;4.624;2022-08-21T15:24:47;7.70;;;1.50;;
35150;SDS011;55720;51.972;4.624;2022-08-21T15:27:12;9.02;;;1.48;;
35150;SDS011;55720;51.972;4.624;2022-08-21T15:29:40;3.85;;;1.05;;
35150;SDS011;55720;51.972;4.624;2022-08-21T15:34:44;6.13;;;1.58;;
35150;SDS011;55720;51.972;4.624;2022-08-21T15:37:09;8.27;;;1.40;;
35150;SDS011;55720;51.972;4.624;2022-08-21T15:39:35;4.32;;;1.20;;
35150;SDS011;55720;51.972;4.624;2022-08-21T15:42:01;6.95;;;1.10;;
35150;SDS011;55720;51.972;4.624;2022-08-21T15:44:28;6.15;;;1.55;;
35150;SDS011;55720;51.972;4.624;2022-08-21T15:46:54;6.38;;;1.40;;
35150;SDS011;55720;51.972;4.624;2022-08-21T15:49:20;3.00;;;1.25;;
35150;SDS011;55720;51.972;4.624;2022-08-21T15:51:46;5.43;;;1.63;;
35150;SDS011;55720;51.972;4.624;2022-08-21T15:54:11;9.32;;;1.58;;
35150;SDS011;55720;51.972;4.624;2022-08-21T15:56:37;12.80;;;2.13;;
35150;SDS011;55720;51.972;4.624;2022-08-21T15:59:06;5.30;;;1.45;;
35150;SDS011;55720;51.972;4.624;2022-08-21T16:01:37;5.82;;;1.48;;
35150;SDS011;55720;51.972;4.624;2022-08-21T16:04:03;10.43;;;1.40;;
35150;SDS011;55720;51.972;4.624;2022-08-21T16:06:29;10.10;;;1.77;;
35150;SDS011;55720;51.972;4.624;2022-08-21T16:08:55;5.68;;;1.52;;
35150;SDS011;55720;51.972;4.624;2022-08-21T16:11:20;13.23;;;2.15;;
35150;SDS011;55720;51.972;4.624;2022-08-21T16:13:46;6.07;;;1.77;;
35150;SDS011;55720;51.972;4.624;2022-08-21T16:16:15;6.35;;;1.35;;
35150;SDS011;55720;51.972;4.624;2022-08-21T16:18:43;5.22;;;1.60;;
35150;SDS011;55720;51.972;4.624;2022-08-21T16:21:09;6.32;;;1.40;;
35150;SDS011;55720;51.972;4.624;2022-08-21T16:23:35;4.47;;;1.38;;
35150;SDS011;55720;51.972;4.624;2022-08-21T16:26:02;5.38;;;1.60;;
35150;SDS011;55720;51.972;4.624;2022-08-21T16:28:28;4.15;;;1.48;;